Time;durP1;ratioP1;P1;durP2;ratioP2;P2;SDS_P1;SDS_P2;PMS_P1;PMS_P2;Temp;Humidity;BMP_temperature;BMP_pressure;BME280_temperature;BME280_humidity;BME280_pressure;Samples;Min_cycle;Max_cycle;Signal;HPM_P1;HPM_P2
2021/06/08 00:00:33;;;;;;;;;14.00;11.50;;;;;21.16;100.00;101993.06;5077210;27;47506;-65
2021/06/08 00:02:59;;;;;;;;;12.00;11.75;;;;;21.16;100.00;102008.13;5077224;28;45399;-69
2021/06/08 00:05:24;;;;;;;;;15.50;15.00;;;;;21.10;100.00;102001.28;5059191;28;45929;-64
2021/06/08 00:07:50;;;;;;;;;17.50;16.75;;;;;21.13;100.00;102005.59;5077559;28;45304;-65
2021/06/08 00:10:17;;;;;;;;;20.75;16.00;;;;;21.06;100.00;102010.28;5077086;28;46479;-65
2021/06/08 00:12:43;;;;;;;;;18.50;16.75;;;;;21.04;100.00;102010.31;5077008;27;45300;-65
2021/06/08 00:15:09;;;;;;;;;17.75;16.75;;;;;20.98;100.00;102004.38;5077285;28;45347;-65
2021/06/08 00:17:34;;;;;;;;;13.75;13.75;;;;;20.96;100.00;102001.78;5077410;28;45961;-65
2021/06/08 00:20:00;;;;;;;;;14.50;14.50;;;;;20.91;100.00;102009.06;5076839;28;47049;-65
2021/06/08 00:22:26;;;;;;;;;14.50;13.00;;;;;20.88;100.00;102003.00;5077853;28;45451;-64
2021/06/08 00:24:52;;;;;;;;;13.25;12.50;;;;;20.84;100.00;101999.59;5077078;28;45382;-65
2021/06/08 00:27:17;;;;;;;;;15.75;14.50;;;;;20.82;100.00;102000.53;5059935;28;45253;-64
2021/06/08 00:33:31;;;;;;;;;16.00;15.50;;;;;20.75;100.00;101994.59;5077971;28;45305;-64
2021/06/08 00:35:56;;;;;;;;;16.00;15.50;;;;;20.74;100.00;102000.84;5077839;28;45470;-64
2021/06/08 00:38:22;;;;;;;;;12.75;12.75;;;;;20.71;100.00;102003.59;5059815;28;45468;-64
2021/06/08 00:40:47;;;;;;;;;18.25;14.25;;;;;20.70;100.00;102013.34;5077490;28;45698;-69
2021/06/08 00:43:13;;;;;;;;;15.00;13.75;;;;;20.66;100.00;102016.19;5077624;28;45280;-65
2021/06/08 00:45:38;;;;;;;;;16.25;15.50;;;;;20.52;100.00;102014.00;5077889;28;45492;-64
2021/06/08 00:48:06;;;;;;;;;13.75;13.00;;;;;20.43;100.00;101999.28;5077935;28;45258;-64
2021/06/08 00:50:31;;;;;;;;;15.25;14.50;;;;;20.39;100.00;102005.59;5077514;28;46612;-65
2021/06/08 00:52:57;;;;;;;;;17.50;17.50;;;;;20.40;100.00;102009.13;5077581;28;45337;-64
2021/06/08 00:55:22;;;;;;;;;15.75;15.75;;;;;20.26;100.00;101998.97;5077872;28;45408;-68
2021/06/08 00:57:49;;;;;;;;;17.00;16.00;;;;;20.25;100.00;102006.97;5077613;28;45273;-65
2021/06/08 01:00:21;;;;;;;;;19.50;17.00;;;;;20.18;100.00;101995.72;5077218;28;45379;-64
2021/06/08 01:02:49;;;;;;;;;18.00;16.50;;;;;20.13;100.00;102000.28;5077486;28;45645;-63
2021/06/08 01:05:14;;;;;;;;;17.25;15.75;;;;;20.13;100.00;102002.94;5077913;28;45292;-64
2021/06/08 01:07:40;;;;;;;;;15.00;15.00;;;;;20.10;100.00;102008.34;5077695;28;45437;-64
2021/06/08 01:10:08;;;;;;;;;17.00;16.75;;;;;20.04;100.00;101996.19;5077213;28;46130;-64
2021/06/08 01:12:34;;;;;;;;;16.00;15.00;;;;;20.05;100.00;101997.91;5077562;28;45438;-68
2021/06/08 01:18:22;;;;;;;;;18.75;16.75;;;;;19.98;100.00;102008.78;5077574;28;45317;-63
2021/06/08 01:20:50;;;;;;;;;14.75;14.25;;;;;19.87;100.00;101998.50;5076958;28;47367;-64
2021/06/08 01:23:15;;;;;;;;;16.50;15.75;;;;;19.79;100.00;101998.78;5077250;28;45471;-64
2021/06/08 01:25:41;;;;;;;;;17.50;16.25;;;;;19.77;100.00;101999.75;5077333;28;45582;-64
2021/06/08 01:28:07;;;;;;;;;17.75;16.25;;;;;19.80;100.00;102011.09;5077230;28;45349;-63
2021/06/08 01:30:33;;;;;;;;;17.00;15.25;;;;;19.69;100.00;102002.66;5059079;28;46099;-63
2021/06/08 01:33:01;;;;;;;;;17.50;15.25;;;;;19.68;100.00;102003.53;5077032;28;45680;-63
2021/06/08 01:35:28;;;;;;;;;16.00;16.00;;;;;19.67;100.00;102012.41;5077805;28;45478;-64
2021/06/08 01:37:53;;;;;;;;;16.00;15.25;;;;;19.60;100.00;102010.00;5080989;28;45372;-63
2021/06/08 01:40:20;;;;;;;;;15.75;14.75;;;;;19.56;100.00;102009.25;5080598;28;47097;-64
2021/06/08 01:42:48;;;;;;;;;15.75;14.75;;;;;19.59;100.00;102019.75;5080838;28;45741;-65
2021/06/08 01:48:36;;;;;;;;;19.75;18.75;;;;;19.52;100.00;102028.78;5080904;28;45369;-62
2021/06/08 01:51:20;;;;;;;;;17.25;16.50;;;;;19.48;100.00;102027.13;5080558;28;46670;-64
2021/06/08 01:54:10;;;;;;;;;17.75;16.00;;;;;19.42;100.00;102022.00;5080429;28;45670;-63
2021/06/08 01:56:37;;;;;;;;;14.75;14.00;;;;;19.38;100.00;102023.88;5080978;28;45422;-64
2021/06/08 01:59:26;;;;;;;;;16.50;16.25;;;;;19.36;100.00;102024.84;5081011;28;45341;-65
2021/06/08 02:01:59;;;;;;;;;17.75;15.75;;;;;19.28;100.00;102022.44;5080606;28;46318;-67
2021/06/08 02:04:46;;;;;;;;;18.75;16.75;;;;;19.30;100.00;102022.38;5080717;28;45261;-64
2021/06/08 02:07:48;;;;;;;;;18.50;17.50;;;;;19.28;100.00;102023.31;5080610;28;45369;-65
2021/06/08 02:10:45;;;;;;;;;21.00;19.75;;;;;19.26;100.00;102029.56;5080800;28;45179;-64
2021/06/08 02:16:41;;;;;;;;;18.75;17.25;;;;;19.14;100.00;102024.63;5080205;28;45238;-64
2021/06/08 02:19:09;;;;;;;;;17.75;17.00;;;;;19.11;100.00;102030.88;5079919;28;45436;-64
2021/06/08 02:21:39;;;;;;;;;20.50;19.50;;;;;19.09;100.00;102030.03;5080203;28;45428;-67
2021/06/08 02:24:08;;;;;;;;;19.50;18.75;;;;;19.01;100.00;102026.75;5079710;28;47067;-65
2021/06/08 02:26:39;;;;;;;;;19.00;17.50;;;;;19.04;100.00;102037.25;5079874;28;45332;-64
2021/06/08 02:32:29;;;;;;;;;20.25;17.00;;;;;18.92;100.00;102032.31;5080097;28;45319;-63
2021/06/08 02:34:55;;;;;;;;;19.25;17.50;;;;;18.96;100.00;102036.59;5079552;28;47040;-63
2021/06/08 02:37:22;;;;;;;;;16.50;15.25;;;;;18.93;100.00;102034.91;5079368;28;45292;-63
2021/06/08 02:39:48;;;;;;;;;18.75;17.25;;;;;18.82;100.00;102015.81;5079664;28;45343;-63
2021/06/08 02:42:18;;;;;;;;;18.00;17.25;;;;;18.88;100.00;102042.13;5079833;28;45498;-64
2021/06/08 02:48:05;;;;;;;;;18.75;17.50;;;;;18.78;100.00;102030.03;5078626;28;45659;-64
2021/06/08 02:50:31;;;;;;;;;18.50;16.75;;;;;18.60;100.00;102002.28;5078625;28;45323;-63
2021/06/08 02:52:58;;;;;;;;;16.25;15.00;;;;;18.78;100.00;102037.09;5080084;28;45398;-64
2021/06/08 02:55:25;;;;;;;;;20.50;19.25;;;;;18.85;100.00;102049.28;5060887;28;47726;-64
2021/06/08 02:57:52;;;;;;;;;22.25;19.25;;;;;18.84;100.00;102055.47;5060951;28;45670;-64
2021/06/08 03:03:42;;;;;;;;;19.50;18.75;;;;;18.60;100.00;102023.47;5079513;28;45355;-64
2021/06/08 03:06:21;;;;;;;;;21.75;20.50;;;;;18.70;100.00;102047.03;5078973;28;46701;-65
2021/06/08 03:08:56;;;;;;;;;20.00;17.50;;;;;18.73;100.00;102060.19;5079510;28;45472;-65
2021/06/08 03:11:28;;;;;;;;;20.25;17.50;;;;;18.64;100.00;102056.88;5079597;28;45323;-65
2021/06/08 03:13:55;;;;;;;;;19.00;17.00;;;;;18.64;100.00;102062.19;5079403;28;45277;-65
2021/06/08 03:16:24;;;;;;;;;17.75;17.25;;;;;18.57;100.00;102054.41;5079188;28;46452;-64
2021/06/08 03:18:53;;;;;;;;;18.00;17.00;;;;;18.57;100.00;102068.50;5078943;28;45461;-64
2021/06/08 03:21:27;;;;;;;;;22.25;19.00;;;;;18.55;100.00;102057.06;5079105;28;45353;-65
2021/06/08 03:23:56;;;;;;;;;17.00;16.00;;;;;18.49;100.00;102053.72;5079541;28;45363;-64
2021/06/08 03:26:23;;;;;;;;;15.50;15.50;;;;;18.44;100.00;102048.56;5078831;28;45472;-64
2021/06/08 03:28:52;;;;;;;;;18.00;17.00;;;;;18.44;100.00;102043.28;5078751;28;45308;-66
2021/06/08 03:31:20;;;;;;;;;17.00;15.75;;;;;18.47;100.00;102053.78;5079412;28;45297;-64
2021/06/08 03:33:47;;;;;;;;;15.50;15.00;;;;;18.43;100.00;102051.25;5079009;28;45351;-64
2021/06/08 03:36:13;;;;;;;;;16.75;15.25;;;;;18.39;100.00;102057.53;5078680;28;46380;-64
2021/06/08 03:38:40;;;;;;;;;25.25;18.75;;;;;18.37;100.00;102057.56;5078832;28;45653;-64
2021/06/08 03:41:07;;;;;;;;;20.00;19.00;;;;;18.37;100.00;102065.50;5079168;28;45202;-65
2021/06/08 03:49:39;;;;;;;;;19.25;16.00;;;;;18.36;100.00;102061.13;5078562;28;45615;-69
2021/06/08 03:52:04;;;;;;;;;17.25;17.00;;;;;18.28;100.00;102052.50;5078651;28;45278;-68
2021/06/08 03:54:30;;;;;;;;;22.75;19.75;;;;;18.35;100.00;102067.31;5078855;28;45297;-68
2021/06/08 03:56:57;;;;;;;;;23.25;21.25;;;;;18.32;100.00;102067.38;5078244;28;46018;-66
2021/06/08 03:59:25;;;;;;;;;21.00;18.75;;;;;18.27;100.00;102069.28;5078059;28;45658;-65
2021/06/08 04:01:52;;;;;;;;;24.00;17.75;;;;;18.23;100.00;102067.63;5078739;28;45407;-65
2021/06/08 04:04:18;;;;;;;;;18.00;17.50;;;;;18.14;100.00;102052.88;5078730;28;45456;-67
2021/06/08 04:06:46;;;;;;;;;21.50;19.25;;;;;18.19;100.00;102061.53;5078210;28;47043;-64
2021/06/08 04:09:12;;;;;;;;;15.25;14.50;;;;;18.13;100.00;102056.41;5060061;28;45370;-65
2021/06/08 04:11:38;;;;;;;;;19.25;18.50;;;;;18.10;100.00;102039.72;5078521;28;45364;-64
2021/06/08 04:14:04;;;;;;;;;20.25;18.00;;;;;18.17;100.00;102060.72;5078474;28;45276;-65
2021/06/08 04:16:30;;;;;;;;;18.00;16.75;;;;;18.17;100.00;102057.19;5078113;28;47580;-68
2021/06/08 04:18:56;;;;;;;;;19.50;18.25;;;;;18.20;100.00;102065.91;5077944;28;45349;-64
2021/06/08 04:21:23;;;;;;;;;22.00;20.25;;;;;18.18;100.00;102073.03;5078165;28;45363;-65
2021/06/08 04:23:56;;;;;;;;;21.75;18.50;;;;;18.05;100.00;102051.28;5078241;28;45351;-64
2021/06/08 04:26:23;;;;;;;;;19.25;16.25;;;;;18.11;100.00;102068.81;5077847;28;46142;-64
2021/06/08 04:28:48;;;;;;;;;19.75;19.00;;;;;18.07;100.00;102064.47;5077823;28;45598;-65
2021/06/08 04:34:36;;;;;;;;;21.00;20.50;;;;;18.12;100.00;102067.03;5078100;28;45411;-65
2021/06/08 04:37:01;;;;;;;;;22.50;19.00;;;;;18.13;100.00;102060.84;5078034;28;46590;-64
2021/06/08 04:39:26;;;;;;;;;22.50;19.00;;;;;18.15;100.00;102070.47;5077566;28;45407;-69
2021/06/08 04:41:52;;;;;;;;;17.25;14.50;;;;;18.05;100.00;102067.16;5077713;28;45801;-66
2021/06/08 04:44:20;;;;;;;;;24.00;22.25;;;;;18.10;100.00;102074.09;5077924;28;45431;-63
2021/06/08 04:46:46;;;;;;;;;25.00;23.50;;;;;18.10;100.00;102079.38;5077427;28;46425;-64
2021/06/08 04:49:15;;;;;;;;;18.75;18.00;;;;;17.99;100.00;102063.78;5076315;28;45629;-65
2021/06/08 04:51:41;;;;;;;;;21.00;17.75;;;;;17.98;100.00;102067.34;5077693;28;45364;-64
2021/06/08 04:54:06;;;;;;;;;17.25;17.00;;;;;18.01;100.00;102083.13;5078071;28;45378;-64
2021/06/08 04:56:33;;;;;;;;;22.25;20.25;;;;;17.96;100.00;102077.09;5059361;28;46374;-63
2021/06/08 04:58:58;;;;;;;;;21.50;20.00;;;;;17.92;100.00;102076.28;5077402;28;45394;-70
2021/06/08 05:01:31;;;;;;;;;24.25;22.00;;;;;17.93;100.00;102079.81;5077817;28;45464;-64
2021/06/08 05:04:07;;;;;;;;;22.25;20.25;;;;;17.91;100.00;102085.13;5077696;28;45306;-64
2021/06/08 05:06:39;;;;;;;;;17.75;15.00;;;;;17.87;100.00;102083.44;5077312;28;46399;-65
2021/06/08 05:09:11;;;;;;;;;22.25;19.25;;;;;17.85;100.00;102079.97;5059111;28;45677;-64
2021/06/08 05:11:42;;;;;;;;;21.00;19.50;;;;;17.82;100.00;102087.97;5076599;28;45400;-65
2021/06/08 05:14:12;;;;;;;;;30.50;27.75;;;;;17.83;100.00;102089.69;5077434;28;45473;-66
2021/06/08 05:16:39;;;;;;;;;22.00;19.25;;;;;17.81;100.00;102083.59;5077400;28;45332;-67
2021/06/08 05:19:06;;;;;;;;;22.50;18.25;;;;;17.85;100.00;102085.25;5076887;28;45408;-75
2021/06/08 05:21:32;;;;;;;;;25.00;22.00;;;;;17.80;100.00;102078.34;5077278;28;45362;-63
2021/06/08 05:23:58;;;;;;;;;22.00;20.00;;;;;17.85;100.00;102084.38;5077744;28;45460;-65
2021/06/08 05:26:24;;;;;;;;;17.50;17.50;;;;;17.89;100.00;102086.06;5076966;28;46229;-66
2021/06/08 05:28:50;;;;;;;;;21.25;18.00;;;;;17.93;100.00;102098.31;5076773;28;45380;-63
2021/06/08 05:34:42;;;;;;;;;22.25;21.25;;;;;17.95;100.00;102104.41;5077022;28;45356;-63
2021/06/08 05:37:12;;;;;;;;;21.25;17.50;;;;;17.95;100.00;102096.50;5076715;28;46443;-64
2021/06/08 05:39:40;;;;;;;;;21.50;18.00;;;;;17.97;100.00;102094.69;5076865;28;45400;-63
2021/06/08 05:42:08;;;;;;;;;18.00;17.00;;;;;18.00;100.00;102098.13;5076883;28;45327;-68
2021/06/08 05:44:36;;;;;;;;;15.25;15.25;;;;;17.99;100.00;102082.28;5076908;28;45367;-64
2021/06/08 05:47:03;;;;;;;;;23.50;20.00;;;;;18.15;100.00;102090.75;5076519;28;47301;-64
2021/06/08 05:49:29;;;;;;;;;18.50;17.75;;;;;18.14;100.00;102091.66;5076750;28;45767;-64
2021/06/08 05:51:58;;;;;;;;;20.50;19.00;;;;;18.21;100.00;102095.88;5076727;28;45380;-62
2021/06/08 05:54:26;;;;;;;;;13.25;13.25;;;;;18.26;100.00;102100.13;5074554;28;45443;-62
2021/06/08 05:56:52;;;;;;;;;23.75;21.00;;;;;18.29;100.00;102100.06;5076477;28;46520;-63
2021/06/08 05:59:18;;;;;;;;;23.25;21.50;;;;;18.29;100.00;102093.91;5076361;28;45454;-63
2021/06/08 06:01:44;;;;;;;;;21.00;21.00;;;;;18.32;100.00;102088.53;5076604;28;45313;-62
2021/06/08 06:04:16;;;;;;;;;21.75;19.75;;;;;18.38;100.00;102092.81;5076736;28;45398;-62
2021/06/08 06:06:42;;;;;;;;;21.00;21.00;;;;;18.42;100.00;102094.47;5076175;28;47021;-62
2021/06/08 06:09:08;;;;;;;;;25.75;23.25;;;;;18.49;100.00;102098.69;5076601;28;45387;-62
2021/06/08 06:11:35;;;;;;;;;23.25;22.25;;;;;18.47;100.00;102088.16;5076802;28;45367;-62
2021/06/08 06:14:02;;;;;;;;;22.00;19.50;;;;;18.62;100.00;102105.41;5076709;28;45445;-62
2021/06/08 06:19:49;;;;;;;;;25.75;22.25;;;;;18.78;100.00;102095.31;5076200;28;45710;-62
2021/06/08 06:22:17;;;;;;;;;20.75;19.75;;;;;18.84;100.00;102097.81;5077212;28;45334;-63
2021/06/08 06:24:43;;;;;;;;;21.75;20.00;;;;;18.94;100.00;102099.28;5079833;28;45179;-63
2021/06/08 06:27:08;;;;;;;;;18.75;18.50;;;;;19.01;100.00;102103.53;5078983;28;45988;-63
2021/06/08 06:29:34;;;;;;;;;24.25;22.00;;;;;19.09;100.00;102096.22;5079371;28;45434;-67
2021/06/08 06:32:00;;;;;;;;;25.00;21.25;;;;;19.21;100.00;102106.47;5079392;28;45336;-63
2021/06/08 06:34:25;;;;;;;;;21.50;20.75;;;;;19.25;100.00;102094.91;5079222;28;45520;-61
2021/06/08 06:36:55;;;;;;;;;19.75;19.75;;;;;19.36;100.00;102105.16;5078960;28;47120;-61
2021/06/08 06:39:27;;;;;;;;;25.75;22.75;;;;;19.43;100.00;102103.19;5060792;28;45542;-61
2021/06/08 06:41:54;;;;;;;;;23.75;22.25;;;;;19.47;100.00;102096.94;5079111;28;45376;-61
2021/06/08 06:44:22;;;;;;;;;27.00;23.50;;;;;19.59;100.00;102115.13;5079245;28;45314;-62
2021/06/08 06:50:11;;;;;;;;;27.00;24.75;;;;;19.60;100.00;102106.25;5079011;28;45391;-63
2021/06/08 06:52:38;;;;;;;;;26.00;24.75;;;;;19.61;100.00;102109.78;5079132;28;45368;-65
2021/06/08 06:55:06;;;;;;;;;25.25;23.50;;;;;19.58;100.00;102105.44;5078952;28;45240;-64
2021/06/08 06:57:33;;;;;;;;;29.25;24.75;;;;;19.64;100.00;102101.72;5078736;28;46119;-62
2021/06/08 06:59:59;;;;;;;;;26.75;25.75;;;;;19.67;100.00;102105.16;5078761;28;45698;-63
2021/06/08 07:02:28;;;;;;;;;27.00;26.00;;;;;19.79;100.00;102122.47;5079125;28;45824;-63
2021/06/08 07:04:56;;;;;;;;;25.00;22.75;;;;;19.84;100.00;102123.19;5078992;28;45303;-63
2021/06/08 07:07:22;;;;;;;;;30.00;27.75;;;;;19.87;100.00;102115.16;5078276;28;46768;-65
2021/06/08 07:09:49;;;;;;;;;27.50;24.75;;;;;19.88;100.00;102117.75;5078855;28;45577;-63
2021/06/08 07:12:19;;;;;;;;;35.00;29.50;;;;;19.89;100.00;102106.22;5078886;28;45364;-64
2021/06/08 07:14:45;;;;;;;;;7.75;3.25;;;;;19.96;100.00;102106.06;5078968;28;45362;-63
2021/06/08 07:17:17;;;;;;;;;28.00;25.50;;;;;19.97;100.00;102095.41;5078362;28;46679;-63
2021/06/08 07:19:44;;;;;;;;;31.00;27.00;;;;;20.18;100.00;102107.97;5078552;28;45308;-63
2021/06/08 07:22:10;;;;;;;;;27.75;26.00;;;;;20.21;100.00;102103.47;5078954;28;45571;-64
2021/06/08 07:24:40;;;;;;;;;28.00;26.75;;;;;20.27;100.00;102113.88;5078960;28;45577;-63
2021/06/08 07:27:06;;;;;;;;;33.75;29.50;;;;;20.30;100.00;102111.13;5078032;28;45524;-70
2021/06/08 07:29:32;;;;;;;;;31.50;29.00;;;;;20.30;100.00;102106.69;5078352;28;45436;-68
2021/06/08 07:35:27;;;;;;;;;31.50;28.25;;;;;20.39;100.00;102109.06;5078667;28;45430;-63
2021/06/08 07:37:55;;;;;;;;;34.00;30.25;;;;;20.46;100.00;102104.44;5078081;28;47331;-64
2021/06/08 07:40:38;;;;;;;;;32.25;28.25;;;;;20.49;100.00;102109.63;5077646;28;45246;-63
2021/06/08 07:43:06;;;;;;;;;27.00;26.00;;;;;20.53;100.00;102102.44;5078271;28;45463;-64
2021/06/08 07:45:40;;;;;;;;;29.25;25.50;;;;;20.53;100.00;102107.75;5078651;28;45557;-64
2021/06/08 07:48:09;;;;;;;;;31.00;27.75;;;;;20.59;100.00;102100.44;5078086;28;46507;-66
2021/06/08 07:50:38;;;;;;;;;37.25;30.50;;;;;20.68;100.00;102110.75;5059516;28;45807;-64
2021/06/08 07:53:04;;;;;;;;;33.00;29.00;;;;;20.65;100.00;102083.44;5078486;28;45305;-65
2021/06/08 07:55:32;;;;;;;;;32.25;30.00;;;;;20.71;100.00;102096.50;5078180;28;45518;-63
2021/06/08 07:57:57;;;;;;;;;29.25;27.00;;;;;20.73;100.00;102097.31;5077718;28;46560;-63
2021/06/08 08:00:23;;;;;;;;;34.75;30.00;;;;;20.75;100.00;102087.50;5077866;28;45457;-63
2021/06/08 08:02:52;;;;;;;;;30.75;28.50;;;;;20.90;100.00;102094.94;5077933;28;45445;-66
2021/06/08 08:05:21;;;;;;;;;32.00;29.00;;;;;20.99;100.00;102091.94;5078108;28;45549;-63
2021/06/08 08:07:48;;;;;;;;;32.25;28.75;;;;;21.12;100.00;102100.34;5077597;28;45751;-65
2021/06/08 08:10:14;;;;;;;;;32.00;29.25;;;;;21.21;100.00;102091.16;5077634;28;45315;-65
2021/06/08 08:12:41;;;;;;;;;35.00;29.25;;;;;21.33;100.00;102091.63;5077722;28;45221;-63
2021/06/08 08:15:09;;;;;;;;;32.00;29.00;;;;;21.43;100.00;102096.56;5077800;28;45627;-63
2021/06/08 08:17:36;;;;;;;;;31.00;27.75;;;;;21.50;100.00;102095.41;5077411;28;45403;-63
2021/06/08 08:20:06;;;;;;;;;31.50;28.75;;;;;21.56;100.00;102084.56;5077471;28;45627;-71
2021/06/08 08:22:31;;;;;;;;;34.25;28.00;;;;;21.61;100.00;102072.81;5059336;28;45411;-63
2021/06/08 08:24:57;;;;;;;;;35.00;31.50;;;;;21.74;100.00;102075.00;5077432;28;45439;-63
2021/06/08 08:27:24;;;;;;;;;34.50;31.50;;;;;21.83;100.00;102077.28;5077276;28;46973;-63
2021/06/08 08:29:49;;;;;;;;;33.75;30.25;;;;;21.91;100.00;102067.19;5077326;28;45608;-63
2021/06/08 08:35:40;;;;;;;;;37.50;32.25;;;;;22.10;100.00;102052.25;5077381;28;45554;-65
2021/06/08 08:38:07;;;;;;;;;35.50;30.00;;;;;22.26;100.00;102056.03;5077519;28;46246;-73
2021/06/08 08:40:33;;;;;;;;;40.00;32.50;;;;;22.51;100.00;102065.63;5077038;28;45275;-64
2021/06/08 08:43:02;;;;;;;;;35.50;31.50;;;;;22.67;100.00;102057.84;5077528;28;45265;-66
2021/06/08 08:45:31;;;;;;;;;37.75;31.25;;;;;22.91;100.00;102070.97;5076471;28;45543;-67
2021/06/08 08:47:58;;;;;;;;;34.00;31.25;;;;;23.08;100.00;102061.34;5077251;28;45630;-64
2021/06/08 08:50:24;;;;;;;;;32.75;30.25;;;;;23.28;100.00;102068.41;5076995;28;45579;-64
2021/06/08 08:52:57;;;;;;;;;38.50;32.50;;;;;23.39;100.00;102055.47;5077231;28;45329;-65
2021/06/08 08:55:24;;;;;;;;;35.00;30.50;;;;;23.46;100.00;102064.91;5077142;28;45466;-63
2021/06/08 08:57:51;;;;;;;;;43.50;36.75;;;;;23.55;100.00;102063.63;5076767;28;47105;-62
2021/06/08 09:00:17;;;;;;;;;37.75;31.50;;;;;23.70;100.00;102077.09;5076991;28;45394;-63
2021/06/08 09:02:43;;;;;;;;;37.50;31.00;;;;;23.85;100.00;102066.66;5077000;28;45443;-63
2021/06/08 09:05:10;;;;;;;;;31.50;27.50;;;;;23.98;100.00;102065.09;5077216;28;45365;-62
2021/06/08 09:07:36;;;;;;;;;29.00;26.50;;;;;24.13;100.00;102059.88;5076869;28;46769;-70
2021/06/08 09:10:09;;;;;;;;;30.25;28.50;;;;;24.31;100.00;102047.44;5077154;28;45455;-65
2021/06/08 09:12:36;;;;;;;;;45.00;35.25;;;;;24.57;100.00;102053.25;5059945;28;45321;-62
2021/06/08 09:15:04;;;;;;;;;27.50;26.00;;;;;24.81;100.00;102045.75;5077075;28;45277;-63
2021/06/08 09:20:52;;;;;;;;;28.50;25.50;;;;;25.14;100.00;102030.63;5076823;28;45329;-63
2021/06/08 09:23:39;;;;;;;;;27.75;26.00;;;;;25.40;100.00;102045.22;5076929;28;45399;-65
2021/06/08 09:26:05;;;;;;;;;35.75;28.00;;;;;25.63;100.00;102038.56;5077157;28;45310;-64
2021/06/08 09:28:32;;;;;;;;;32.50;30.00;;;;;25.72;100.00;102029.19;5076278;28;45452;-64
2021/06/08 09:30:59;;;;;;;;;29.50;28.00;;;;;25.81;100.00;102031.34;5076709;28;45395;-64
2021/06/08 09:33:36;;;;;;;;;31.25;28.00;;;;;25.85;100.00;102028.41;5076589;28;45380;-64
2021/06/08 09:36:06;;;;;;;;;28.75;28.00;;;;;25.87;100.00;102031.00;5076979;28;45447;-64
2021/06/08 09:38:46;;;;;;;;;27.00;26.50;;;;;25.86;100.00;102024.78;5076325;28;46276;-63
2021/06/08 09:41:19;;;;;;;;;27.50;25.50;;;;;25.95;100.00;102032.25;5058224;28;45199;-64
2021/06/08 09:44:15;;;;;;;;;32.50;28.50;;;;;26.13;100.00;102029.47;5076705;28;45310;-63
2021/06/08 09:46:48;;;;;;;;;24.50;23.00;;;;;26.35;100.00;102034.44;5075143;28;45499;-63
2021/06/08 09:49:18;;;;;;;;;22.00;20.50;;;;;26.62;100.00;102027.41;5076475;28;46433;-63
2021/06/08 09:51:49;;;;;;;;;21.00;19.25;;;;;26.97;100.00;102025.22;5076676;28;45411;-64
2021/06/08 09:54:23;;;;;;;;;18.75;16.25;;;;;27.44;100.00;102032.09;5076616;28;45379;-64
2021/06/08 09:57:17;;;;;;;;;14.25;13.25;;;;;27.92;100.00;102027.19;5077860;28;45519;-63
2021/06/08 10:00:06;;;;;;;;;14.00;13.50;;;;;28.55;100.00;102032.72;4997117;28;45498;-64
2021/06/08 10:02:54;;;;;;;;;12.00;12.00;;;;;29.17;100.00;102013.09;4997466;28;45448;-64
2021/06/08 10:05:33;;;;;;;;;12.75;12.75;;;;;30.18;100.00;102022.66;4997522;28;45412;-64
2021/06/08 10:07:58;;;;;;;;;16.25;14.00;;;;;31.29;100.00;102024.66;4997521;28;45516;-67
2021/06/08 10:10:35;;;;;;;;;15.00;11.00;;;;;32.75;100.00;102021.34;4997091;28;46104;-64
2021/06/08 10:13:05;;;;;;;;;16.50;16.00;;;;;34.25;100.00;102022.97;4997334;28;45386;-64
2021/06/08 10:18:56;;;;;;;;;13.50;12.00;;;;;36.19;79.99;102021.00;4997145;28;45468;-63
2021/06/08 10:21:47;;;;;;;;;15.25;14.50;;;;;34.31;76.57;102013.41;4996828;28;47240;-63
2021/06/08 10:24:15;;;;;;;;;14.25;13.00;;;;;32.96;78.59;102010.50;4997132;28;45603;-63
2021/06/08 10:26:47;;;;;;;;;11.00;11.00;;;;;32.65;81.72;102012.31;4997042;28;45469;-63
2021/06/08 10:29:14;;;;;;;;;13.25;12.50;;;;;32.59;80.89;102005.59;4996976;28;45408;-62
2021/06/08 10:35:01;;;;;;;;;14.25;12.25;;;;;31.87;75.09;102009.03;4996801;28;45318;-63
2021/06/08 10:37:27;;;;;;;;;17.75;17.50;;;;;31.97;76.54;102006.44;5057761;28;45339;-64
2021/06/08 10:39:55;;;;;;;;;12.75;12.25;;;;;33.29;77.15;102006.63;5079315;28;45497;-64
2021/06/08 10:42:21;;;;;;;;;12.00;12.00;;;;;34.25;72.38;102003.16;5078830;28;46366;-64
2021/06/08 10:44:58;;;;;;;;;12.50;12.50;;;;;35.14;68.74;102009.88;5079207;28;45325;-63
2021/06/08 10:50:50;;;;;;;;;10.25;10.00;;;;;37.20;56.86;101994.06;5079043;28;45447;-64
2021/06/08 10:53:33;;;;;;;;;8.50;7.25;;;;;37.55;58.28;102000.28;5078696;28;46398;-64
2021/06/08 10:56:00;;;;;;;;;8.25;7.25;;;;;37.47;56.06;101994.81;5078976;28;45327;-64
2021/06/08 10:58:44;;;;;;;;;9.75;7.00;;;;;37.62;54.56;101995.88;5079003;28;45341;-64
2021/06/08 11:01:29;;;;;;;;;10.25;10.00;;;;;38.08;52.61;102004.44;5079248;28;45387;-63
2021/06/08 11:03:55;;;;;;;;;9.50;8.75;;;;;38.39;50.63;101988.22;4996014;28;46288;-64
2021/06/08 11:06:50;;;;;;;;;10.50;10.25;;;;;38.70;46.91;101997.34;4996483;28;45277;-63
2021/06/08 11:09:25;;;;;;;;;9.50;9.50;;;;;38.75;46.24;101994.97;4995331;28;45492;-64
2021/06/08 11:11:57;;;;;;;;;8.75;8.00;;;;;38.63;45.73;101995.53;4996502;28;45413;-63
2021/06/08 11:17:12;;;;;;;;;9.25;9.25;;;;;37.61;45.12;101989.56;4995827;28;45581;-63
2021/06/08 11:19:58;;;;;;;;;10.00;10.00;;;;;36.67;46.85;101978.84;4996162;28;45294;-63
2021/06/08 11:22:35;;;;;;;;;9.00;8.00;;;;;36.10;48.78;101985.75;4996300;28;45333;-63
2021/06/08 11:25:06;;;;;;;;;8.25;8.25;;;;;35.85;46.60;101995.56;4996075;28;45454;-64
2021/06/08 11:28:01;;;;;;;;;12.00;12.00;;;;;35.67;45.54;101990.09;4995566;28;45581;-63
2021/06/08 11:30:38;;;;;;;;;8.25;8.25;;;;;35.22;43.16;101987.38;4995963;28;45519;-63
2021/06/08 11:33:08;;;;;;;;;8.50;8.25;;;;;34.68;43.14;101975.50;4996195;28;45363;-63
2021/06/08 11:35:42;;;;;;;;;10.00;9.00;;;;;34.51;42.88;101987.13;4995788;28;46623;-63
2021/06/08 11:38:30;;;;;;;;;8.25;8.00;;;;;34.75;45.91;101983.88;4995807;28;45601;-67
2021/06/08 11:41:08;;;;;;;;;10.25;10.25;;;;;35.32;43.96;101982.78;5033005;28;45422;-67
2021/06/08 11:43:33;;;;;;;;;10.75;10.00;;;;;35.78;41.55;101981.72;5078786;28;45356;-63
2021/06/08 11:49:24;;;;;;;;;8.00;7.00;;;;;36.86;39.36;101977.75;5078148;28;45634;-64
2021/06/08 11:52:05;;;;;;;;;9.75;9.75;;;;;36.86;38.24;101969.56;5078187;28;45264;-64
2021/06/08 11:54:30;;;;;;;;;8.25;8.25;;;;;36.06;38.62;101990.66;5078089;28;45458;-66
2021/06/08 11:57:00;;;;;;;;;7.50;7.25;;;;;36.13;38.58;101985.41;5078262;28;46683;-64
2021/06/08 11:59:44;;;;;;;;;9.50;9.25;;;;;36.59;39.02;101969.75;5077763;28;45424;-63
2021/06/08 12:05:42;;;;;;;;;10.00;10.00;;;;;36.40;39.64;101971.69;5078345;28;45220;-64
2021/06/08 12:08:11;;;;;;;;;10.75;10.00;;;;;35.77;43.40;101979.16;5077544;28;46453;-65
2021/06/08 12:10:45;;;;;;;;;11.50;10.75;;;;;35.31;43.92;101978.34;5077511;28;45556;-64
2021/06/08 12:13:12;;;;;;;;;9.50;8.50;;;;;34.71;42.98;101977.91;5077975;28;45392;-63
2021/06/08 12:15:45;;;;;;;;;8.00;7.00;;;;;34.73;44.49;101965.03;5078142;28;45336;-63
2021/06/08 12:21:32;;;;;;;;;9.00;9.00;;;;;33.69;46.40;101955.94;5077541;28;45324;-63
2021/06/08 12:23:59;;;;;;;;;10.00;8.00;;;;;33.25;47.61;101949.16;5077457;28;45246;-64
2021/06/08 12:26:25;;;;;;;;;10.75;9.75;;;;;33.66;47.92;101958.94;5077796;28;45365;-64
2021/06/08 12:29:09;;;;;;;;;10.00;9.00;;;;;34.54;49.46;101957.84;5076952;28;46513;-64
2021/06/08 12:31:36;;;;;;;;;8.00;7.25;;;;;35.25;47.48;101936.34;5077650;28;45279;-64